sensor_id;sensor_type;location;lat;lon;timestamp;P1;durP1;ratioP1;P2;durP2;ratioP2
78844;SDS011;68195;50.854;2.860;2023-08-24T00:00:18;8.63;;;5.82;;
78844;SDS011;68195;50.854;2.860;2023-08-24T00:02:46;8.77;;;5.57;;
78844;SDS011;68195;50.854;2.860;2023-08-24T00:05:12;8.40;;;5.50;;
78844;SDS011;68195;50.854;2.860;2023-08-24T00:07:40;9.75;;;6.18;;
78844;SDS011;68195;50.854;2.860;2023-08-24T00:10:06;10.05;;;6.57;;
78844;SDS011;68195;50.854;2.860;2023-08-24T00:12:32;11.30;;;6.13;;
78844;SDS011;68195;50.854;2.860;2023-08-24T00:14:58;10.13;;;6.00;;
78844;SDS011;68195;50.854;2.860;2023-08-24T00:17:24;12.00;;;5.78;;
78844;SDS011;68195;50.854;2.860;2023-08-24T00:19:49;9.85;;;6.43;;
78844;SDS011;68195;50.854;2.860;2023-08-24T00:22:15;9.38;;;6.05;;
78844;SDS011;68195;50.854;2.860;2023-08-24T00:24:40;7.65;;;6.43;;
78844;SDS011;68195;50.854;2.860;2023-08-24T00:27:06;10.20;;;5.97;;
78844;SDS011;68195;50.854;2.860;2023-08-24T00:29:31;9.90;;;6.05;;
78844;SDS011;68195;50.854;2.860;2023-08-24T00:32:01;11.70;;;7.63;;
78844;SDS011;68195;50.854;2.860;2023-08-24T00:34:27;9.77;;;6.57;;
78844;SDS011;68195;50.854;2.860;2023-08-24T00:36:54;10.82;;;6.55;;
78844;SDS011;68195;50.854;2.860;2023-08-24T00:39:20;10.45;;;6.47;;
78844;SDS011;68195;50.854;2.860;2023-08-24T00:41:50;10.48;;;7.00;;
78844;SDS011;68195;50.854;2.860;2023-08-24T00:44:15;10.50;;;7.20;;
78844;SDS011;68195;50.854;2.860;2023-08-24T00:46:42;10.38;;;6.95;;
78844;SDS011;68195;50.854;2.860;2023-08-24T00:49:09;13.10;;;7.55;;
78844;SDS011;68195;50.854;2.860;2023-08-24T00:51:36;12.23;;;6.28;;
78844;SDS011;68195;50.854;2.860;2023-08-24T00:54:02;10.23;;;6.68;;
78844;SDS011;68195;50.854;2.860;2023-08-24T00:56:28;9.23;;;7.15;;
78844;SDS011;68195;50.854;2.860;2023-08-24T00:58:55;15.88;;;7.07;;
78844;SDS011;68195;50.854;2.860;2023-08-24T01:01:22;11.18;;;7.28;;
78844;SDS011;68195;50.854;2.860;2023-08-24T01:03:49;8.40;;;6.18;;
78844;SDS011;68195;50.854;2.860;2023-08-24T01:06:17;10.48;;;7.25;;
78844;SDS011;68195;50.854;2.860;2023-08-24T01:08:42;10.27;;;7.07;;
78844;SDS011;68195;50.854;2.860;2023-08-24T01:11:24;9.98;;;6.53;;
78844;SDS011;68195;50.854;2.860;2023-08-24T01:14:07;11.95;;;7.30;;
78844;SDS011;68195;50.854;2.860;2023-08-24T01:16:39;11.27;;;7.28;;
78844;SDS011;68195;50.854;2.860;2023-08-24T01:22:07;9.77;;;7.40;;
78844;SDS011;68195;50.854;2.860;2023-08-24T01:24:46;10.77;;;7.50;;
78844;SDS011;68195;50.854;2.860;2023-08-24T01:27:18;11.13;;;7.68;;
78844;SDS011;68195;50.854;2.860;2023-08-24T01:29:47;9.65;;;7.20;;
78844;SDS011;68195;50.854;2.860;2023-08-24T01:32:14;9.45;;;7.68;;
78844;SDS011;68195;50.854;2.860;2023-08-24T01:34:41;11.43;;;7.00;;
78844;SDS011;68195;50.854;2.860;2023-08-24T01:37:09;10.20;;;6.65;;
78844;SDS011;68195;50.854;2.860;2023-08-24T01:39:49;11.50;;;7.43;;
78844;SDS011;68195;50.854;2.860;2023-08-24T01:42:22;9.93;;;7.28;;
78844;SDS011;68195;50.854;2.860;2023-08-24T01:44:54;10.48;;;7.40;;
78844;SDS011;68195;50.854;2.860;2023-08-24T01:47:24;11.07;;;6.95;;
78844;SDS011;68195;50.854;2.860;2023-08-24T01:49:51;9.80;;;7.45;;
78844;SDS011;68195;50.854;2.860;2023-08-24T01:52:22;11.02;;;8.23;;
78844;SDS011;68195;50.854;2.860;2023-08-24T01:54:49;8.43;;;6.80;;
78844;SDS011;68195;50.854;2.860;2023-08-24T01:57:19;9.65;;;7.38;;
78844;SDS011;68195;50.854;2.860;2023-08-24T01:59:44;10.40;;;7.88;;
78844;SDS011;68195;50.854;2.860;2023-08-24T02:02:10;8.98;;;7.50;;
78844;SDS011;68195;50.854;2.860;2023-08-24T02:04:38;11.75;;;8.18;;
78844;SDS011;68195;50.854;2.860;2023-08-24T02:07:06;12.35;;;8.68;;
78844;SDS011;68195;50.854;2.860;2023-08-24T02:09:31;14.65;;;8.60;;
78844;SDS011;68195;50.854;2.860;2023-08-24T02:11:56;14.13;;;8.80;;
78844;SDS011;68195;50.854;2.860;2023-08-24T02:14:22;12.00;;;8.25;;
78844;SDS011;68195;50.854;2.860;2023-08-24T02:16:47;9.00;;;6.80;;
78844;SDS011;68195;50.854;2.860;2023-08-24T02:19:15;8.77;;;6.85;;
78844;SDS011;68195;50.854;2.860;2023-08-24T02:21:40;11.07;;;7.22;;
78844;SDS011;68195;50.854;2.860;2023-08-24T02:24:06;8.70;;;7.07;;
78844;SDS011;68195;50.854;2.860;2023-08-24T02:26:32;10.90;;;7.00;;
78844;SDS011;68195;50.854;2.860;2023-08-24T02:28:59;9.45;;;7.32;;
78844;SDS011;68195;50.854;2.860;2023-08-24T02:31:27;9.82;;;6.95;;
78844;SDS011;68195;50.854;2.860;2023-08-24T02:33:55;8.15;;;7.30;;
78844;SDS011;68195;50.854;2.860;2023-08-24T02:36:20;10.93;;;6.60;;
78844;SDS011;68195;50.854;2.860;2023-08-24T02:38:46;11.00;;;7.65;;
78844;SDS011;68195;50.854;2.860;2023-08-24T02:41:11;10.88;;;7.40;;
78844;SDS011;68195;50.854;2.860;2023-08-24T02:43:39;8.35;;;6.38;;
78844;SDS011;68195;50.854;2.860;2023-08-24T02:46:08;10.00;;;7.40;;
78844;SDS011;68195;50.854;2.860;2023-08-24T02:48:34;10.70;;;6.70;;
78844;SDS011;68195;50.854;2.860;2023-08-24T02:51:01;10.63;;;6.22;;
78844;SDS011;68195;50.854;2.860;2023-08-24T02:53:28;12.50;;;7.03;;
78844;SDS011;68195;50.854;2.860;2023-08-24T02:55:54;9.63;;;6.72;;
78844;SDS011;68195;50.854;2.860;2023-08-24T02:58:24;10.02;;;6.75;;
78844;SDS011;68195;50.854;2.860;2023-08-24T03:00:50;7.43;;;6.20;;
78844;SDS011;68195;50.854;2.860;2023-08-24T03:03:20;9.68;;;7.28;;
78844;SDS011;68195;50.854;2.860;2023-08-24T03:05:59;12.25;;;7.72;;
78844;SDS011;68195;50.854;2.860;2023-08-24T03:08:27;9.70;;;6.13;;
78844;SDS011;68195;50.854;2.860;2023-08-24T03:10:56;8.35;;;6.50;;
78844;SDS011;68195;50.854;2.860;2023-08-24T03:13:22;9.77;;;6.13;;
78844;SDS011;68195;50.854;2.860;2023-08-24T03:15:50;10.52;;;6.45;;
78844;SDS011;68195;50.854;2.860;2023-08-24T03:18:17;11.88;;;7.07;;
78844;SDS011;68195;50.854;2.860;2023-08-24T03:20:44;12.43;;;6.57;;
78844;SDS011;68195;50.854;2.860;2023-08-24T03:23:12;9.00;;;6.72;;
78844;SDS011;68195;50.854;2.860;2023-08-24T03:25:39;12.15;;;7.15;;
78844;SDS011;68195;50.854;2.860;2023-08-24T03:28:06;10.68;;;7.15;;
78844;SDS011;68195;50.854;2.860;2023-08-24T03:30:38;12.10;;;7.78;;
78844;SDS011;68195;50.854;2.860;2023-08-24T03:33:11;10.38;;;6.68;;
78844;SDS011;68195;50.854;2.860;2023-08-24T03:35:39;13.13;;;7.82;;
78844;SDS011;68195;50.854;2.860;2023-08-24T03:38:05;9.77;;;6.65;;
78844;SDS011;68195;50.854;2.860;2023-08-24T03:40:30;11.57;;;7.50;;
78844;SDS011;68195;50.854;2.860;2023-08-24T03:42:55;12.05;;;7.72;;
78844;SDS011;68195;50.854;2.860;2023-08-24T03:45:21;10.88;;;6.85;;
78844;SDS011;68195;50.854;2.860;2023-08-24T03:47:47;9.32;;;7.15;;
78844;SDS011;68195;50.854;2.860;2023-08-24T03:50:16;12.15;;;7.43;;
78844;SDS011;68195;50.854;2.860;2023-08-24T03:52:41;11.73;;;7.78;;
78844;SDS011;68195;50.854;2.860;2023-08-24T03:55:08;9.65;;;7.45;;
78844;SDS011;68195;50.854;2.860;2023-08-24T03:57:33;9.90;;;7.07;;
78844;SDS011;68195;50.854;2.860;2023-08-24T03:59:59;13.27;;;7.25;;
78844;SDS011;68195;50.854;2.860;2023-08-24T04:02:24;10.30;;;8.07;;
78844;SDS011;68195;50.854;2.860;2023-08-24T04:04:50;11.60;;;8.35;;
78844;SDS011;68195;50.854;2.860;2023-08-24T04:07:16;13.18;;;8.45;;
78844;SDS011;68195;50.854;2.860;2023-08-24T04:09:43;15.13;;;8.38;;
78844;SDS011;68195;50.854;2.860;2023-08-24T04:12:10;10.25;;;8.23;;
78844;SDS011;68195;50.854;2.860;2023-08-24T04:14:36;13.27;;;8.68;;
78844;SDS011;68195;50.854;2.860;2023-08-24T04:17:04;11.20;;;8.50;;
78844;SDS011;68195;50.854;2.860;2023-08-24T04:19:32;11.93;;;8.55;;
78844;SDS011;68195;50.854;2.860;2023-08-24T04:22:02;11.73;;;8.45;;
78844;SDS011;68195;50.854;2.860;2023-08-24T04:24:28;13.50;;;8.00;;
78844;SDS011;68195;50.854;2.860;2023-08-24T04:26:54;12.27;;;8.88;;
78844;SDS011;68195;50.854;2.860;2023-08-24T04:29:26;14.10;;;7.82;;
78844;SDS011;68195;50.854;2.860;2023-08-24T04:31:54;12.48;;;9.80;;
78844;SDS011;68195;50.854;2.860;2023-08-24T04:34:19;12.15;;;8.40;;
78844;SDS011;68195;50.854;2.860;2023-08-24T04:36:45;11.52;;;8.13;;
78844;SDS011;68195;50.854;2.860;2023-08-24T04:39:10;13.93;;;8.68;;
78844;SDS011;68195;50.854;2.860;2023-08-24T04:41:35;13.27;;;9.10;;
78844;SDS011;68195;50.854;2.860;2023-08-24T04:44:03;10.25;;;8.40;;
78844;SDS011;68195;50.854;2.860;2023-08-24T04:46:31;10.65;;;8.25;;
78844;SDS011;68195;50.854;2.860;2023-08-24T04:48:59;10.63;;;7.95;;
78844;SDS011;68195;50.854;2.860;2023-08-24T04:51:28;11.70;;;8.10;;
78844;SDS011;68195;50.854;2.860;2023-08-24T04:53:54;10.27;;;8.02;;
78844;SDS011;68195;50.854;2.860;2023-08-24T04:56:19;11.45;;;8.23;;
78844;SDS011;68195;50.854;2.860;2023-08-24T04:58:54;12.43;;;8.45;;
78844;SDS011;68195;50.854;2.860;2023-08-24T05:01:22;11.02;;;8.70;;
78844;SDS011;68195;50.854;2.860;2023-08-24T05:03:50;10.15;;;7.00;;
78844;SDS011;68195;50.854;2.860;2023-08-24T05:06:17;11.18;;;8.13;;
78844;SDS011;68195;50.854;2.860;2023-08-24T05:08:43;11.80;;;7.90;;
78844;SDS011;68195;50.854;2.860;2023-08-24T05:11:17;11.90;;;7.65;;
78844;SDS011;68195;50.854;2.860;2023-08-24T05:13:44;12.48;;;8.30;;
78844;SDS011;68195;50.854;2.860;2023-08-24T05:16:10;12.32;;;8.27;;
78844;SDS011;68195;50.854;2.860;2023-08-24T05:18:36;10.63;;;7.03;;
78844;SDS011;68195;50.854;2.860;2023-08-24T05:21:02;11.82;;;6.97;;
78844;SDS011;68195;50.854;2.860;2023-08-24T05:23:28;9.82;;;7.88;;
78844;SDS011;68195;50.854;2.860;2023-08-24T05:25:57;12.82;;;6.95;;
78844;SDS011;68195;50.854;2.860;2023-08-24T05:28:24;10.13;;;6.57;;
78844;SDS011;68195;50.854;2.860;2023-08-24T05:30:50;12.82;;;7.65;;
78844;SDS011;68195;50.854;2.860;2023-08-24T05:33:19;9.90;;;7.03;;
78844;SDS011;68195;50.854;2.860;2023-08-24T05:35:46;10.05;;;7.20;;
78844;SDS011;68195;50.854;2.860;2023-08-24T05:38:12;8.77;;;7.25;;
78844;SDS011;68195;50.854;2.860;2023-08-24T05:40:38;10.45;;;7.10;;
78844;SDS011;68195;50.854;2.860;2023-08-24T05:43:07;14.25;;;7.60;;
78844;SDS011;68195;50.854;2.860;2023-08-24T05:45:33;11.40;;;7.10;;
78844;SDS011;68195;50.854;2.860;2023-08-24T05:47:58;12.88;;;7.60;;
78844;SDS011;68195;50.854;2.860;2023-08-24T05:50:26;9.95;;;7.28;;
78844;SDS011;68195;50.854;2.860;2023-08-24T05:52:51;11.85;;;7.25;;
78844;SDS011;68195;50.854;2.860;2023-08-24T05:55:21;8.38;;;6.40;;
78844;SDS011;68195;50.854;2.860;2023-08-24T05:57:47;10.45;;;7.22;;
78844;SDS011;68195;50.854;2.860;2023-08-24T06:00:15;14.70;;;8.10;;
78844;SDS011;68195;50.854;2.860;2023-08-24T06:02:43;13.88;;;6.97;;
78844;SDS011;68195;50.854;2.860;2023-08-24T06:05:09;13.20;;;7.75;;
78844;SDS011;68195;50.854;2.860;2023-08-24T06:07:35;13.75;;;7.40;;
78844;SDS011;68195;50.854;2.860;2023-08-24T06:10:00;11.10;;;8.52;;
78844;SDS011;68195;50.854;2.860;2023-08-24T06:12:28;9.18;;;6.85;;
78844;SDS011;68195;50.854;2.860;2023-08-24T06:14:56;11.00;;;6.93;;
78844;SDS011;68195;50.854;2.860;2023-08-24T06:17:21;10.75;;;7.18;;
78844;SDS011;68195;50.854;2.860;2023-08-24T06:19:47;10.30;;;7.28;;
78844;SDS011;68195;50.854;2.860;2023-08-24T06:22:12;10.93;;;6.88;;
78844;SDS011;68195;50.854;2.860;2023-08-24T06:24:37;10.32;;;6.70;;
78844;SDS011;68195;50.854;2.860;2023-08-24T06:27:05;11.18;;;6.90;;
78844;SDS011;68195;50.854;2.860;2023-08-24T06:29:35;9.02;;;6.72;;
78844;SDS011;68195;50.854;2.860;2023-08-24T06:32:00;8.32;;;6.63;;
78844;SDS011;68195;50.854;2.860;2023-08-24T06:34:26;9.50;;;7.63;;
78844;SDS011;68195;50.854;2.860;2023-08-24T06:36:52;8.95;;;6.85;;
78844;SDS011;68195;50.854;2.860;2023-08-24T06:39:18;11.90;;;6.95;;
78844;SDS011;68195;50.854;2.860;2023-08-24T06:41:44;8.70;;;6.90;;
78844;SDS011;68195;50.854;2.860;2023-08-24T06:44:09;8.50;;;6.72;;
78844;SDS011;68195;50.854;2.860;2023-08-24T06:46:35;11.55;;;7.90;;
78844;SDS011;68195;50.854;2.860;2023-08-24T06:49:01;13.57;;;7.88;;
78844;SDS011;68195;50.854;2.860;2023-08-24T06:51:28;10.75;;;6.78;;
78844;SDS011;68195;50.854;2.860;2023-08-24T06:53:56;11.05;;;7.35;;
78844;SDS011;68195;50.854;2.860;2023-08-24T06:56:22;9.85;;;7.05;;
78844;SDS011;68195;50.854;2.860;2023-08-24T06:58:49;8.93;;;6.25;;
78844;SDS011;68195;50.854;2.860;2023-08-24T07:01:17;9.85;;;6.30;;
78844;SDS011;68195;50.854;2.860;2023-08-24T07:03:43;8.43;;;6.28;;
78844;SDS011;68195;50.854;2.860;2023-08-24T07:06:25;8.60;;;6.82;;
78844;SDS011;68195;50.854;2.860;2023-08-24T07:09:11;8.93;;;6.30;;
78844;SDS011;68195;50.854;2.860;2023-08-24T07:11:40;9.55;;;5.53;;
78844;SDS011;68195;50.854;2.860;2023-08-24T07:14:10;8.48;;;6.30;;
78844;SDS011;68195;50.854;2.860;2023-08-24T07:16:38;8.15;;;5.38;;
78844;SDS011;68195;50.854;2.860;2023-08-24T07:19:03;10.32;;;7.55;;
78844;SDS011;68195;50.854;2.860;2023-08-24T07:21:30;7.72;;;6.07;;
78844;SDS011;68195;50.854;2.860;2023-08-24T07:23:57;8.75;;;6.97;;
78844;SDS011;68195;50.854;2.860;2023-08-24T07:26:23;7.47;;;5.78;;
78844;SDS011;68195;50.854;2.860;2023-08-24T07:28:50;8.43;;;6.22;;
78844;SDS011;68195;50.854;2.860;2023-08-24T07:31:15;9.50;;;6.65;;
78844;SDS011;68195;50.854;2.860;2023-08-24T07:33:41;9.20;;;6.35;;
78844;SDS011;68195;50.854;2.860;2023-08-24T07:36:08;8.38;;;6.18;;
78844;SDS011;68195;50.854;2.860;2023-08-24T07:38:34;7.93;;;6.50;;
78844;SDS011;68195;50.854;2.860;2023-08-24T07:40:59;10.48;;;6.65;;
78844;SDS011;68195;50.854;2.860;2023-08-24T07:43:28;10.35;;;6.85;;
78844;SDS011;68195;50.854;2.860;2023-08-24T07:45:55;12.77;;;6.40;;
78844;SDS011;68195;50.854;2.860;2023-08-24T07:48:21;12.93;;;7.38;;
78844;SDS011;68195;50.854;2.860;2023-08-24T07:50:48;10.57;;;6.55;;
78844;SDS011;68195;50.854;2.860;2023-08-24T07:53:14;13.38;;;7.57;;
78844;SDS011;68195;50.854;2.860;2023-08-24T07:55:39;16.27;;;9.20;;
78844;SDS011;68195;50.854;2.860;2023-08-24T07:58:05;12.40;;;8.27;;
78844;SDS011;68195;50.854;2.860;2023-08-24T08:00:40;10.77;;;8.13;;
78844;SDS011;68195;50.854;2.860;2023-08-24T08:03:06;10.40;;;8.23;;
78844;SDS011;68195;50.854;2.860;2023-08-24T08:05:33;12.07;;;8.38;;
78844;SDS011;68195;50.854;2.860;2023-08-24T08:08:02;11.10;;;9.00;;
78844;SDS011;68195;50.854;2.860;2023-08-24T08:10:27;17.55;;;8.93;;
78844;SDS011;68195;50.854;2.860;2023-08-24T08:12:56;13.77;;;8.45;;
78844;SDS011;68195;50.854;2.860;2023-08-24T08:15:23;13.45;;;7.88;;
78844;SDS011;68195;50.854;2.860;2023-08-24T08:17:51;13.65;;;8.88;;
78844;SDS011;68195;50.854;2.860;2023-08-24T08:20:20;12.32;;;9.23;;
78844;SDS011;68195;50.854;2.860;2023-08-24T08:22:45;11.57;;;8.52;;
78844;SDS011;68195;50.854;2.860;2023-08-24T08:25:13;13.13;;;9.05;;
78844;SDS011;68195;50.854;2.860;2023-08-24T08:27:43;15.25;;;10.77;;
78844;SDS011;68195;50.854;2.860;2023-08-24T08:30:09;14.85;;;8.95;;
78844;SDS011;68195;50.854;2.860;2023-08-24T08:32:35;11.85;;;9.30;;
78844;SDS011;68195;50.854;2.860;2023-08-24T08:35:03;9.90;;;6.38;;
78844;SDS011;68195;50.854;2.860;2023-08-24T08:37:32;8.68;;;6.32;;
78844;SDS011;68195;50.854;2.860;2023-08-24T08:39:58;7.55;;;6.55;;
78844;SDS011;68195;50.854;2.860;2023-08-24T08:42:26;8.85;;;6.53;;
78844;SDS011;68195;50.854;2.860;2023-08-24T08:44:51;9.18;;;5.78;;
78844;SDS011;68195;50.854;2.860;2023-08-24T08:47:19;8.90;;;5.85;;
78844;SDS011;68195;50.854;2.860;2023-08-24T08:49:48;6.57;;;5.03;;
78844;SDS011;68195;50.854;2.860;2023-08-24T08:52:15;9.07;;;5.03;;
78844;SDS011;68195;50.854;2.860;2023-08-24T08:54:43;6.50;;;4.50;;
78844;SDS011;68195;50.854;2.860;2023-08-24T08:57:13;4.85;;;4.32;;
78844;SDS011;68195;50.854;2.860;2023-08-24T08:59:41;8.23;;;4.80;;
78844;SDS011;68195;50.854;2.860;2023-08-24T09:02:10;4.53;;;3.42;;
78844;SDS011;68195;50.854;2.860;2023-08-24T09:04:42;6.25;;;3.67;;
78844;SDS011;68195;50.854;2.860;2023-08-24T09:07:15;7.22;;;3.70;;
78844;SDS011;68195;50.854;2.860;2023-08-24T09:09:43;8.55;;;3.95;;
78844;SDS011;68195;50.854;2.860;2023-08-24T09:12:09;5.35;;;3.15;;
78844;SDS011;68195;50.854;2.860;2023-08-24T09:14:34;7.57;;;4.05;;
78844;SDS011;68195;50.854;2.860;2023-08-24T09:17:00;6.53;;;4.25;;
78844;SDS011;68195;50.854;2.860;2023-08-24T09:19:28;6.55;;;4.88;;
78844;SDS011;68195;50.854;2.860;2023-08-24T09:21:59;8.30;;;4.95;;
78844;SDS011;68195;50.854;2.860;2023-08-24T09:24:34;6.63;;;4.13;;
78844;SDS011;68195;50.854;2.860;2023-08-24T09:27:05;5.93;;;4.40;;
78844;SDS011;68195;50.854;2.860;2023-08-24T09:29:39;8.52;;;4.47;;
78844;SDS011;68195;50.854;2.860;2023-08-24T09:32:07;7.80;;;4.85;;
78844;SDS011;68195;50.854;2.860;2023-08-24T09:34:33;6.95;;;5.30;;
78844;SDS011;68195;50.854;2.860;2023-08-24T09:36:58;9.02;;;5.43;;
78844;SDS011;68195;50.854;2.860;2023-08-24T09:39:29;7.50;;;5.25;;
78844;SDS011;68195;50.854;2.860;2023-08-24T09:41:54;11.35;;;5.65;;
78844;SDS011;68195;50.854;2.860;2023-08-24T09:44:28;9.98;;;6.05;;
78844;SDS011;68195;50.854;2.860;2023-08-24T09:46:56;10.55;;;6.15;;
78844;SDS011;68195;50.854;2.860;2023-08-24T09:49:23;8.48;;;5.72;;
78844;SDS011;68195;50.854;2.860;2023-08-24T09:51:51;8.07;;;5.60;;
78844;SDS011;68195;50.854;2.860;2023-08-24T09:54:27;7.00;;;5.93;;
78844;SDS011;68195;50.854;2.860;2023-08-24T09:56:57;7.63;;;5.75;;
78844;SDS011;68195;50.854;2.860;2023-08-24T09:59:27;7.32;;;5.32;;
78844;SDS011;68195;50.854;2.860;2023-08-24T10:01:55;7.18;;;5.75;;
78844;SDS011;68195;50.854;2.860;2023-08-24T10:04:28;6.80;;;5.28;;
78844;SDS011;68195;50.854;2.860;2023-08-24T10:12:23;6.45;;;4.30;;
78844;SDS011;68195;50.854;2.860;2023-08-24T10:15:00;6.85;;;4.65;;
78844;SDS011;68195;50.854;2.860;2023-08-24T10:17:29;7.55;;;4.75;;
78844;SDS011;68195;50.854;2.860;2023-08-24T10:20:00;8.52;;;4.70;;
78844;SDS011;68195;50.854;2.860;2023-08-24T10:22:30;7.10;;;4.15;;
78844;SDS011;68195;50.854;2.860;2023-08-24T10:24:56;6.88;;;4.75;;
78844;SDS011;68195;50.854;2.860;2023-08-24T10:27:24;4.10;;;3.70;;
78844;SDS011;68195;50.854;2.860;2023-08-24T10:29:57;5.57;;;3.80;;
78844;SDS011;68195;50.854;2.860;2023-08-24T10:32:25;5.95;;;4.07;;
78844;SDS011;68195;50.854;2.860;2023-08-24T10:34:54;5.13;;;3.63;;
78844;SDS011;68195;50.854;2.860;2023-08-24T10:37:26;8.30;;;4.70;;
78844;SDS011;68195;50.854;2.860;2023-08-24T10:39:52;7.50;;;4.57;;
78844;SDS011;68195;50.854;2.860;2023-08-24T10:42:20;5.68;;;4.38;;
78844;SDS011;68195;50.854;2.860;2023-08-24T10:44:50;6.90;;;3.85;;
78844;SDS011;68195;50.854;2.860;2023-08-24T10:52:33;6.85;;;4.55;;
78844;SDS011;68195;50.854;2.860;2023-08-24T10:55:04;7.53;;;5.13;;
78844;SDS011;68195;50.854;2.860;2023-08-24T10:57:55;8.77;;;4.90;;
78844;SDS011;68195;50.854;2.860;2023-08-24T11:00:22;7.15;;;4.88;;
78844;SDS011;68195;50.854;2.860;2023-08-24T11:02:50;7.45;;;4.35;;
78844;SDS011;68195;50.854;2.860;2023-08-24T11:07:50;7.32;;;4.68;;
78844;SDS011;68195;50.854;2.860;2023-08-24T11:10:19;8.02;;;4.50;;
78844;SDS011;68195;50.854;2.860;2023-08-24T11:20:46;7.93;;;4.68;;
78844;SDS011;68195;50.854;2.860;2023-08-24T11:23:15;5.88;;;4.57;;
78844;SDS011;68195;50.854;2.860;2023-08-24T11:25:42;7.50;;;4.50;;
78844;SDS011;68195;50.854;2.860;2023-08-24T11:28:07;5.70;;;3.95;;
78844;SDS011;68195;50.854;2.860;2023-08-24T11:30:35;5.82;;;4.70;;
78844;SDS011;68195;50.854;2.860;2023-08-24T11:33:04;5.82;;;4.18;;
78844;SDS011;68195;50.854;2.860;2023-08-24T11:35:29;6.38;;;3.92;;
78844;SDS011;68195;50.854;2.860;2023-08-24T11:38:01;5.88;;;5.00;;
78844;SDS011;68195;50.854;2.860;2023-08-24T11:40:29;6.40;;;4.95;;
78844;SDS011;68195;50.854;2.860;2023-08-24T11:42:55;8.00;;;4.80;;
78844;SDS011;68195;50.854;2.860;2023-08-24T11:45:23;6.65;;;4.57;;
78844;SDS011;68195;50.854;2.860;2023-08-24T11:47:54;6.00;;;4.97;;
78844;SDS011;68195;50.854;2.860;2023-08-24T11:50:19;8.70;;;5.18;;
78844;SDS011;68195;50.854;2.860;2023-08-24T11:52:47;7.53;;;5.25;;
78844;SDS011;68195;50.854;2.860;2023-08-24T11:55:13;5.95;;;4.78;;
78844;SDS011;68195;50.854;2.860;2023-08-24T11:57:39;6.72;;;4.88;;
78844;SDS011;68195;50.854;2.860;2023-08-24T12:00:07;8.73;;;5.20;;
78844;SDS011;68195;50.854;2.860;2023-08-24T12:02:38;6.43;;;4.60;;
78844;SDS011;68195;50.854;2.860;2023-08-24T12:05:07;6.78;;;5.10;;
78844;SDS011;68195;50.854;2.860;2023-08-24T12:07:33;6.35;;;4.53;;
78844;SDS011;68195;50.854;2.860;2023-08-24T12:10:04;5.75;;;4.20;;
78844;SDS011;68195;50.854;2.860;2023-08-24T12:12:30;5.45;;;4.30;;
78844;SDS011;68195;50.854;2.860;2023-08-24T12:14:56;5.03;;;4.50;;
78844;SDS011;68195;50.854;2.860;2023-08-24T12:17:27;5.85;;;4.40;;
78844;SDS011;68195;50.854;2.860;2023-08-24T12:19:57;6.45;;;4.35;;
78844;SDS011;68195;50.854;2.860;2023-08-24T12:22:26;6.57;;;4.63;;
78844;SDS011;68195;50.854;2.860;2023-08-24T12:24:54;5.57;;;4.07;;
78844;SDS011;68195;50.854;2.860;2023-08-24T12:27:21;5.00;;;3.95;;
78844;SDS011;68195;50.854;2.860;2023-08-24T12:29:51;6.97;;;4.18;;
78844;SDS011;68195;50.854;2.860;2023-08-24T12:32:17;5.30;;;4.20;;
78844;SDS011;68195;50.854;2.860;2023-08-24T12:34:48;5.88;;;4.10;;
78844;SDS011;68195;50.854;2.860;2023-08-24T12:37:19;5.13;;;4.30;;
78844;SDS011;68195;50.854;2.860;2023-08-24T12:39:44;7.70;;;4.43;;
78844;SDS011;68195;50.854;2.860;2023-08-24T12:42:13;6.53;;;4.50;;
78844;SDS011;68195;50.854;2.860;2023-08-24T12:44:41;7.47;;;4.28;;
78844;SDS011;68195;50.854;2.860;2023-08-24T12:47:07;7.05;;;4.32;;
78844;SDS011;68195;50.854;2.860;2023-08-24T12:49:33;5.53;;;3.95;;
78844;SDS011;68195;50.854;2.860;2023-08-24T12:52:00;6.15;;;3.88;;
78844;SDS011;68195;50.854;2.860;2023-08-24T12:54:26;4.88;;;3.92;;
78844;SDS011;68195;50.854;2.860;2023-08-24T12:56:54;7.78;;;3.65;;
78844;SDS011;68195;50.854;2.860;2023-08-24T12:59:22;4.57;;;3.72;;
78844;SDS011;68195;50.854;2.860;2023-08-24T13:01:47;7.07;;;3.83;;
78844;SDS011;68195;50.854;2.860;2023-08-24T13:04:13;5.60;;;4.05;;
78844;SDS011;68195;50.854;2.860;2023-08-24T13:06:40;5.78;;;4.00;;
78844;SDS011;68195;50.854;2.860;2023-08-24T13:09:10;6.57;;;4.20;;
78844;SDS011;68195;50.854;2.860;2023-08-24T13:11:37;7.07;;;4.40;;
78844;SDS011;68195;50.854;2.860;2023-08-24T13:14:02;5.93;;;3.78;;
78844;SDS011;68195;50.854;2.860;2023-08-24T13:16:28;5.78;;;3.60;;
78844;SDS011;68195;50.854;2.860;2023-08-24T13:18:54;7.55;;;4.38;;
78844;SDS011;68195;50.854;2.860;2023-08-24T13:21:23;5.35;;;4.20;;
78844;SDS011;68195;50.854;2.860;2023-08-24T13:23:49;6.38;;;3.90;;
78844;SDS011;68195;50.854;2.860;2023-08-24T13:26:18;5.63;;;4.18;;
78844;SDS011;68195;50.854;2.860;2023-08-24T13:28:45;5.03;;;3.65;;
78844;SDS011;68195;50.854;2.860;2023-08-24T13:31:12;5.53;;;4.10;;
78844;SDS011;68195;50.854;2.860;2023-08-24T13:33:37;5.57;;;3.63;;
78844;SDS011;68195;50.854;2.860;2023-08-24T13:36:03;4.30;;;3.72;;
78844;SDS011;68195;50.854;2.860;2023-08-24T13:38:29;5.18;;;4.20;;
78844;SDS011;68195;50.854;2.860;2023-08-24T13:40:57;5.10;;;3.75;;
78844;SDS011;68195;50.854;2.860;2023-08-24T13:43:22;6.85;;;3.50;;
78844;SDS011;68195;50.854;2.860;2023-08-24T13:45:53;7.75;;;3.53;;
78844;SDS011;68195;50.854;2.860;2023-08-24T13:48:18;4.68;;;3.15;;
78844;SDS011;68195;50.854;2.860;2023-08-24T13:50:50;4.68;;;3.50;;
78844;SDS011;68195;50.854;2.860;2023-08-24T13:53:19;4.35;;;3.42;;
78844;SDS011;68195;50.854;2.860;2023-08-24T13:55:45;5.70;;;3.42;;
78844;SDS011;68195;50.854;2.860;2023-08-24T13:58:10;5.88;;;3.50;;
78844;SDS011;68195;50.854;2.860;2023-08-24T14:00:38;6.05;;;3.10;;
78844;SDS011;68195;50.854;2.860;2023-08-24T14:03:04;4.95;;;3.83;;
78844;SDS011;68195;50.854;2.860;2023-08-24T14:05:33;3.88;;;3.20;;
78844;SDS011;68195;50.854;2.860;2023-08-24T14:07:58;3.90;;;3.50;;
78844;SDS011;68195;50.854;2.860;2023-08-24T14:10:26;6.10;;;3.92;;
78844;SDS011;68195;50.854;2.860;2023-08-24T14:12:51;4.68;;;3.75;;
78844;SDS011;68195;50.854;2.860;2023-08-24T14:15:17;4.72;;;3.70;;
78844;SDS011;68195;50.854;2.860;2023-08-24T14:17:42;4.47;;;3.38;;
78844;SDS011;68195;50.854;2.860;2023-08-24T14:20:11;6.68;;;3.63;;
78844;SDS011;68195;50.854;2.860;2023-08-24T14:22:37;8.80;;;3.38;;
78844;SDS011;68195;50.854;2.860;2023-08-24T14:25:03;4.15;;;3.10;;
78844;SDS011;68195;50.854;2.860;2023-08-24T14:27:29;4.45;;;3.40;;
78844;SDS011;68195;50.854;2.860;2023-08-24T14:29:54;5.03;;;3.45;;
78844;SDS011;68195;50.854;2.860;2023-08-24T14:32:19;4.75;;;3.30;;
78844;SDS011;68195;50.854;2.860;2023-08-24T14:34:47;5.20;;;3.10;;
78844;SDS011;68195;50.854;2.860;2023-08-24T14:37:13;6.53;;;3.13;;
78844;SDS011;68195;50.854;2.860;2023-08-24T14:39:38;4.43;;;3.10;;
78844;SDS011;68195;50.854;2.860;2023-08-24T14:42:04;3.60;;;2.97;;
78844;SDS011;68195;50.854;2.860;2023-08-24T14:44:31;4.40;;;3.00;;
78844;SDS011;68195;50.854;2.860;2023-08-24T14:46:57;5.55;;;3.38;;
78844;SDS011;68195;50.854;2.860;2023-08-24T14:49:22;5.53;;;3.47;;
78844;SDS011;68195;50.854;2.860;2023-08-24T14:51:48;5.90;;;3.45;;
78844;SDS011;68195;50.854;2.860;2023-08-24T14:54:14;3.88;;;3.40;;
78844;SDS011;68195;50.854;2.860;2023-08-24T14:56:40;5.43;;;3.47;;
78844;SDS011;68195;50.854;2.860;2023-08-24T14:59:08;4.35;;;3.53;;
78844;SDS011;68195;50.854;2.860;2023-08-24T15:01:33;4.22;;;2.70;;
78844;SDS011;68195;50.854;2.860;2023-08-24T15:04:04;4.45;;;2.70;;
78844;SDS011;68195;50.854;2.860;2023-08-24T15:06:32;4.55;;;2.95;;
78844;SDS011;68195;50.854;2.860;2023-08-24T15:08:57;4.82;;;3.47;;